St. Day, United Kingdom
Current Conditions -  °F | °C
As of 11:50 PM on Sunday 25 Jan 2015 (Local Time) from EGDR Reporting Station
Haze Haze  
Wind Chill: 44°   Ceiling: 300
Heat Index: 48°   Visibility: 2.1mi
Dew Point: 48°   Wind: 10mph
Humidity: 100%   Direction: 250°WSW
Pressure: 30.33"   Gusts: NA
Location:  50.24°N, 5.19°W
Report Text: EGDR 252350Z 25009KT 3500 BR BKN003 BKN005 BKN008 09/09 Q1027 YLO2
Loading
Personal Weather Stations






























Interactive Weather Map New forecast layout! Learn more

10-Day Weather Forecast

Advertisements
Track Severe Weather on mobile